Time;durP1;ratioP1;P1;durP2;ratioP2;P2;SDS_P1;SDS_P2;PMS_P1;PMS_P2;Temp;Humidity;BMP_temperature;BMP_pressure;BME280_temperature;BME280_humidity;BME280_pressure;Samples;Min_cycle;Max_cycle;Signal;HPM_P1;HPM_P2
2021/09/19 00:00:32;;;;;;;19.05;5.60;;;;;;;;;;5016715;28;20026;-38
2021/09/19 00:02:58;;;;;;;14.95;3.45;;;;;;;;;;5022702;28;20030;-37
2021/09/19 00:05:23;;;;;;;8.05;2.42;;;;;;;;;;5017549;28;20042;-38
2021/09/19 00:07:48;;;;;;;14.95;4.93;;;;;;;;;;5023036;28;20174;-37
2021/09/19 00:10:15;;;;;;;11.93;3.47;;;;;;;;;;5026010;28;20092;-38
2021/09/19 00:12:40;;;;;;;13.20;4.80;;;;;;;;;;5023405;28;20045;-37
2021/09/19 00:15:07;;;;;;;7.25;3.83;;;;;;;;;;5022313;28;20123;-38
2021/09/19 00:17:33;;;;;;;9.50;3.55;;;;;;;;;;5018445;28;20080;-38
2021/09/19 00:19:58;;;;;;;7.47;3.53;;;;;;;;;;5021330;28;20132;-38
2021/09/19 00:22:23;;;;;;;6.55;3.70;;;;;;;;;;5013084;28;20389;-37
2021/09/19 00:24:49;;;;;;;16.95;4.78;;;;;;;;;;5021877;28;20501;-37
2021/09/19 00:27:14;;;;;;;9.48;4.10;;;;;;;;;;5017155;28;20080;-38
2021/09/19 00:29:39;;;;;;;22.48;3.97;;;;;;;;;;5011780;28;20058;-38
2021/09/19 00:32:05;;;;;;;11.73;3.53;;;;;;;;;;5022691;28;20025;-37
2021/09/19 00:34:30;;;;;;;23.00;4.22;;;;;;;;;;5023901;28;20053;-38
2021/09/19 00:36:55;;;;;;;20.85;3.28;;;;;;;;;;5015944;28;20018;-37
2021/09/19 00:39:21;;;;;;;12.82;3.47;;;;;;;;;;5014583;28;20533;-37
2021/09/19 00:41:46;;;;;;;14.93;5.00;;;;;;;;;;5019463;28;20028;-38
2021/09/19 00:44:11;;;;;;;24.00;5.45;;;;;;;;;;5014820;28;20566;-37
2021/09/19 00:46:37;;;;;;;12.98;3.78;;;;;;;;;;5020189;28;20028;-37
2021/09/19 00:49:03;;;;;;;18.63;5.00;;;;;;;;;;5019929;28;20045;-38
2021/09/19 00:51:29;;;;;;;8.38;3.20;;;;;;;;;;5019212;28;20025;-37
2021/09/19 00:53:56;;;;;;;5.18;2.53;;;;;;;;;;5020391;28;20071;-37
2021/09/19 00:56:25;;;;;;;8.90;3.78;;;;;;;;;;5018042;28;20029;-37
2021/09/19 00:58:52;;;;;;;12.50;3.70;;;;;;;;;;5020180;28;20034;-38
2021/09/19 01:01:18;;;;;;;7.90;4.00;;;;;;;;;;5017838;28;20021;-37
2021/09/19 01:03:44;;;;;;;22.55;5.00;;;;;;;;;;5016758;28;20036;-38
2021/09/19 01:06:09;;;;;;;6.30;2.97;;;;;;;;;;5015544;28;20108;-37
2021/09/19 01:08:34;;;;;;;11.38;4.25;;;;;;;;;;5014189;28;20106;-37
2021/09/19 01:11:00;;;;;;;15.45;3.13;;;;;;;;;;5018364;28;20027;-38
2021/09/19 01:13:26;;;;;;;7.30;4.10;;;;;;;;;;5015551;28;20032;-37
2021/09/19 01:15:52;;;;;;;9.05;3.63;;;;;;;;;;5018003;28;20056;-37
2021/09/19 01:18:18;;;;;;;4.53;3.08;;;;;;;;;;5021175;28;20017;-38
2021/09/19 01:20:44;;;;;;;20.92;4.10;;;;;;;;;;5022141;28;20029;-38
2021/09/19 01:23:10;;;;;;;9.02;4.13;;;;;;;;;;5021003;28;20021;-37
2021/09/19 01:25:36;;;;;;;12.32;4.55;;;;;;;;;;5020224;28;20033;-37
2021/09/19 01:28:02;;;;;;;12.38;3.78;;;;;;;;;;5018518;28;20036;-38
2021/09/19 01:30:28;;;;;;;11.55;4.53;;;;;;;;;;5013262;28;20091;-37
2021/09/19 01:32:53;;;;;;;10.27;3.72;;;;;;;;;;5006195;28;20029;-37
2021/09/19 01:35:19;;;;;;;13.48;3.13;;;;;;;;;;5019075;28;20014;-37
2021/09/19 01:37:44;;;;;;;7.90;3.42;;;;;;;;;;5018549;28;20022;-37
2021/09/19 01:40:10;;;;;;;15.82;4.28;;;;;;;;;;5021614;28;20041;-38
2021/09/19 01:42:36;;;;;;;8.73;3.42;;;;;;;;;;5019451;28;20020;-37
2021/09/19 01:45:01;;;;;;;15.43;4.03;;;;;;;;;;5013484;28;20022;-38
2021/09/19 01:47:26;;;;;;;7.38;3.70;;;;;;;;;;5021913;28;20038;-37
2021/09/19 01:49:52;;;;;;;20.38;3.83;;;;;;;;;;5021548;28;20080;-38
2021/09/19 01:52:18;;;;;;;13.52;3.88;;;;;;;;;;5013569;28;20033;-37
2021/09/19 01:54:44;;;;;;;7.07;4.43;;;;;;;;;;5014999;28;20036;-37
2021/09/19 01:57:09;;;;;;;6.78;3.72;;;;;;;;;;5013274;28;20389;-38
2021/09/19 01:59:35;;;;;;;11.80;4.03;;;;;;;;;;5018554;28;20020;-37
2021/09/19 02:02:00;;;;;;;11.20;4.63;;;;;;;;;;5019159;28;20090;-37
2021/09/19 02:04:26;;;;;;;14.13;4.50;;;;;;;;;;5019935;28;20017;-37
2021/09/19 02:06:51;;;;;;;15.20;5.50;;;;;;;;;;5013619;28;20112;-37
2021/09/19 02:09:16;;;;;;;16.42;5.32;;;;;;;;;;5009013;28;20018;-37
2021/09/19 02:11:42;;;;;;;10.25;2.83;;;;;;;;;;5007327;28;20053;-37
2021/09/19 02:14:07;;;;;;;14.13;4.18;;;;;;;;;;5015762;28;20028;-37
2021/09/19 02:16:32;;;;;;;6.47;3.38;;;;;;;;;;5012951;28;20018;-37
2021/09/19 02:18:57;;;;;;;10.45;5.13;;;;;;;;;;5016815;28;20091;-37
2021/09/19 02:21:23;;;;;;;20.08;5.80;;;;;;;;;;5019145;28;20108;-37
2021/09/19 02:23:49;;;;;;;5.70;3.08;;;;;;;;;;5018851;28;20480;-38
2021/09/19 02:26:14;;;;;;;9.45;3.67;;;;;;;;;;5022186;28;20029;-37
2021/09/19 02:28:40;;;;;;;18.83;5.10;;;;;;;;;;5017740;28;20025;-38
2021/09/19 02:31:05;;;;;;;7.60;3.92;;;;;;;;;;5018852;28;20022;-38
2021/09/19 02:33:31;;;;;;;9.43;3.63;;;;;;;;;;5016155;28;20107;-37
2021/09/19 02:35:56;;;;;;;15.50;3.95;;;;;;;;;;5011625;28;20025;-37
2021/09/19 02:38:21;;;;;;;7.65;3.33;;;;;;;;;;5016446;28;20466;-37
2021/09/19 02:40:47;;;;;;;27.00;4.60;;;;;;;;;;5013169;28;20741;-37
2021/09/19 02:43:12;;;;;;;25.40;4.80;;;;;;;;;;5013479;28;20018;-37
2021/09/19 02:45:38;;;;;;;16.23;4.35;;;;;;;;;;5020549;28;20060;-38
2021/09/19 02:48:03;;;;;;;17.23;3.97;;;;;;;;;;5020263;28;20104;-37
2021/09/19 02:50:28;;;;;;;10.73;4.85;;;;;;;;;;5024081;28;20064;-38
2021/09/19 02:52:54;;;;;;;15.00;3.53;;;;;;;;;;5025437;28;20049;-38
2021/09/19 02:55:20;;;;;;;10.88;4.22;;;;;;;;;;5023435;28;20577;-38
2021/09/19 02:57:45;;;;;;;6.03;3.20;;;;;;;;;;5019945;28;20071;-37
2021/09/19 03:00:12;;;;;;;8.20;3.45;;;;;;;;;;5020428;28;20032;-38
2021/09/19 03:02:37;;;;;;;10.80;3.83;;;;;;;;;;5020469;28;20760;-38
2021/09/19 03:05:03;;;;;;;13.60;5.40;;;;;;;;;;5018279;28;20084;-38
2021/09/19 03:07:28;;;;;;;10.52;4.28;;;;;;;;;;5023301;28;20846;-37
2021/09/19 03:09:54;;;;;;;10.25;5.20;;;;;;;;;;5016377;28;21004;-38
2021/09/19 03:12:19;;;;;;;11.15;5.38;;;;;;;;;;5018504;28;20021;-38
2021/09/19 03:14:44;;;;;;;10.50;4.28;;;;;;;;;;5017253;28;20026;-37
2021/09/19 03:17:10;;;;;;;18.38;4.20;;;;;;;;;;5018894;28;20434;-37
2021/09/19 03:19:35;;;;;;;7.68;3.65;;;;;;;;;;5017577;28;20028;-37
2021/09/19 03:22:00;;;;;;;11.75;4.63;;;;;;;;;;5020463;28;20028;-37
2021/09/19 03:24:25;;;;;;;14.07;4.13;;;;;;;;;;5019931;28;20029;-37
2021/09/19 03:26:51;;;;;;;6.70;3.20;;;;;;;;;;5023062;28;20105;-37
2021/09/19 03:29:16;;;;;;;19.15;3.70;;;;;;;;;;5024230;28;20079;-38
2021/09/19 03:31:41;;;;;;;16.35;4.38;;;;;;;;;;5015213;28;20666;-37
2021/09/19 03:34:06;;;;;;;16.48;4.35;;;;;;;;;;5019061;28;20033;-37
2021/09/19 03:36:32;;;;;;;8.73;4.40;;;;;;;;;;5014737;28;20025;-38
2021/09/19 03:38:57;;;;;;;12.80;3.85;;;;;;;;;;5015694;28;20044;-37
2021/09/19 03:41:23;;;;;;;10.15;6.03;;;;;;;;;;5015359;28;20029;-37
2021/09/19 03:43:48;;;;;;;8.05;3.45;;;;;;;;;;5017767;28;20040;-37
2021/09/19 03:46:13;;;;;;;22.52;3.00;;;;;;;;;;5022225;28;20552;-37
2021/09/19 03:48:39;;;;;;;15.60;4.18;;;;;;;;;;5013965;28;20038;-37
2021/09/19 03:51:04;;;;;;;17.17;3.35;;;;;;;;;;5016446;28;20168;-38
2021/09/19 03:53:29;;;;;;;16.75;5.78;;;;;;;;;;5020976;28;20026;-37
2021/09/19 03:55:55;;;;;;;12.25;4.95;;;;;;;;;;5050805;28;20153;-38
2021/09/19 03:58:21;;;;;;;8.13;4.32;;;;;;;;;;5019874;28;20011;-37
2021/09/19 04:00:46;;;;;;;10.10;2.90;;;;;;;;;;5015634;28;20024;-37
2021/09/19 04:03:12;;;;;;;8.00;4.13;;;;;;;;;;5019854;28;20400;-37
2021/09/19 04:05:37;;;;;;;8.32;4.40;;;;;;;;;;5023440;28;20057;-37
2021/09/19 04:08:03;;;;;;;6.18;3.55;;;;;;;;;;5023087;28;20017;-38
2021/09/19 04:10:29;;;;;;;8.48;3.45;;;;;;;;;;5013455;28;20033;-37
2021/09/19 04:12:54;;;;;;;12.30;6.50;;;;;;;;;;5012858;28;20141;-37
2021/09/19 04:15:19;;;;;;;8.93;4.20;;;;;;;;;;5013914;28;20028;-38
2021/09/19 04:17:45;;;;;;;11.93;4.97;;;;;;;;;;5014058;28;20022;-37
2021/09/19 04:20:10;;;;;;;26.17;4.03;;;;;;;;;;5015334;28;20485;-37
2021/09/19 04:22:36;;;;;;;7.53;4.00;;;;;;;;;;5016971;28;20025;-37
2021/09/19 04:25:01;;;;;;;8.57;2.65;;;;;;;;;;5022230;28;20571;-38
2021/09/19 04:27:27;;;;;;;7.45;3.28;;;;;;;;;;5021263;28;20084;-38
2021/09/19 04:29:52;;;;;;;7.25;2.28;;;;;;;;;;5018367;28;20037;-37
2021/09/19 04:32:18;;;;;;;3.45;1.33;;;;;;;;;;5016684;28;20024;-37
2021/09/19 04:34:44;;;;;;;3.58;1.80;;;;;;;;;;5013258;28;20117;-37
2021/09/19 04:37:13;;;;;;;5.43;2.38;;;;;;;;;;5007714;28;20102;-37
2021/09/19 04:39:38;;;;;;;4.00;1.65;;;;;;;;;;5014333;28;20017;-37
2021/09/19 04:42:04;;;;;;;8.40;2.15;;;;;;;;;;5020133;28;20354;-37
2021/09/19 04:44:29;;;;;;;5.53;2.50;;;;;;;;;;5023073;28;20101;-38
2021/09/19 04:46:54;;;;;;;5.28;2.17;;;;;;;;;;5020739;28;20026;-37
2021/09/19 04:49:20;;;;;;;3.40;2.15;;;;;;;;;;5019079;28;20025;-37
2021/09/19 04:51:45;;;;;;;4.05;1.67;;;;;;;;;;5015670;28;20030;-37
2021/09/19 04:54:10;;;;;;;5.32;2.03;;;;;;;;;;5021075;28;20021;-38
2021/09/19 04:56:36;;;;;;;5.53;2.70;;;;;;;;;;5019705;28;20052;-37
2021/09/19 04:59:02;;;;;;;6.47;2.63;;;;;;;;;;5013414;28;20030;-37
2021/09/19 05:01:27;;;;;;;6.40;3.13;;;;;;;;;;5013511;28;20029;-37
2021/09/19 05:03:53;;;;;;;10.00;2.80;;;;;;;;;;5018812;28;20024;-37
2021/09/19 05:06:18;;;;;;;3.03;2.10;;;;;;;;;;5019742;28;20136;-37
2021/09/19 05:08:43;;;;;;;5.40;2.95;;;;;;;;;;5019797;28;20060;-37
2021/09/19 05:11:09;;;;;;;5.03;2.45;;;;;;;;;;5020632;28;20899;-37
2021/09/19 05:13:34;;;;;;;6.43;2.83;;;;;;;;;;5016398;28;20037;-37
2021/09/19 05:15:59;;;;;;;5.03;2.25;;;;;;;;;;5018604;28;20109;-38
2021/09/19 05:18:25;;;;;;;4.10;2.05;;;;;;;;;;5018446;28;20045;-37
2021/09/19 05:20:50;;;;;;;6.85;3.55;;;;;;;;;;5018919;28;20026;-38
2021/09/19 05:23:15;;;;;;;8.23;4.47;;;;;;;;;;5015936;28;20052;-37
2021/09/19 05:25:40;;;;;;;11.43;3.80;;;;;;;;;;5018269;28;20436;-37
2021/09/19 05:28:06;;;;;;;7.45;3.70;;;;;;;;;;5018649;28;20393;-38
2021/09/19 05:30:31;;;;;;;5.32;2.85;;;;;;;;;;5018151;28;20071;-37
2021/09/19 05:32:57;;;;;;;8.07;3.42;;;;;;;;;;5020307;28;20028;-38
2021/09/19 05:35:22;;;;;;;17.52;4.20;;;;;;;;;;5019614;28;20044;-37
2021/09/19 05:37:47;;;;;;;11.95;4.20;;;;;;;;;;5017896;28;20014;-37
2021/09/19 05:40:14;;;;;;;20.60;4.68;;;;;;;;;;5020139;28;20116;-37
2021/09/19 05:42:39;;;;;;;8.13;3.42;;;;;;;;;;5017268;28;20025;-37
2021/09/19 05:45:05;;;;;;;5.82;2.92;;;;;;;;;;5019558;28;20601;-37
2021/09/19 05:47:30;;;;;;;11.02;3.40;;;;;;;;;;5015869;28;20022;-37
2021/09/19 05:49:55;;;;;;;17.75;3.72;;;;;;;;;;5020178;28;20028;-37
2021/09/19 05:52:21;;;;;;;16.50;3.50;;;;;;;;;;5015664;28;20080;-37
2021/09/19 05:54:46;;;;;;;7.68;4.07;;;;;;;;;;5020851;28;20083;-37
2021/09/19 05:57:11;;;;;;;5.68;3.22;;;;;;;;;;5016282;28;20021;-38
2021/09/19 05:59:37;;;;;;;9.70;2.13;;;;;;;;;;5018444;28;20108;-38
2021/09/19 06:02:02;;;;;;;14.57;3.53;;;;;;;;;;5017018;28;20047;-37
2021/09/19 06:04:27;;;;;;;6.47;2.03;;;;;;;;;;5016543;28;20500;-37
2021/09/19 06:06:53;;;;;;;10.65;2.22;;;;;;;;;;5013396;28;20117;-37
2021/09/19 06:09:18;;;;;;;4.63;2.35;;;;;;;;;;5013793;28;20053;-37
2021/09/19 06:11:43;;;;;;;10.00;4.38;;;;;;;;;;5013901;28;20025;-37
2021/09/19 06:14:09;;;;;;;11.85;3.30;;;;;;;;;;5014535;28;20384;-38
2021/09/19 06:16:35;;;;;;;6.55;3.33;;;;;;;;;;5018548;28;20036;-37
2021/09/19 06:19:01;;;;;;;3.53;2.25;;;;;;;;;;5015067;28;20021;-38
2021/09/19 06:21:26;;;;;;;4.20;2.17;;;;;;;;;;5026503;28;20022;-38
2021/09/19 06:23:51;;;;;;;5.00;2.67;;;;;;;;;;5022110;28;20018;-37
2021/09/19 06:26:17;;;;;;;8.10;2.20;;;;;;;;;;5023079;28;20032;-38
2021/09/19 06:28:42;;;;;;;3.58;1.27;;;;;;;;;;5024998;28;20032;-37
2021/09/19 06:31:07;;;;;;;8.15;2.78;;;;;;;;;;5020747;28;20393;-37
2021/09/19 06:33:34;;;;;;;11.15;2.75;;;;;;;;;;5018932;28;20453;-37
2021/09/19 06:36:00;;;;;;;5.85;3.20;;;;;;;;;;5022708;28;20018;-38
2021/09/19 06:38:25;;;;;;;6.43;2.55;;;;;;;;;;5023140;28;20080;-38
2021/09/19 06:40:51;;;;;;;6.03;2.65;;;;;;;;;;5018803;28;20215;-37
2021/09/19 06:43:16;;;;;;;11.00;3.28;;;;;;;;;;5020049;28;20026;-38
2021/09/19 06:45:41;;;;;;;6.95;3.00;;;;;;;;;;5022707;28;20052;-37
2021/09/19 06:48:06;;;;;;;7.88;4.10;;;;;;;;;;5024018;28;20065;-37
2021/09/19 06:50:32;;;;;;;7.18;4.15;;;;;;;;;;5020672;28;20018;-37
2021/09/19 06:52:57;;;;;;;5.07;3.28;;;;;;;;;;5022665;28;20638;-37
2021/09/19 06:55:22;;;;;;;6.95;3.08;;;;;;;;;;5016275;28;20045;-38
2021/09/19 06:57:57;;;;;;;2.53;1.92;;;;;;;;;;5015182;28;20096;-38
2021/09/19 07:00:23;;;;;;;6.22;2.78;;;;;;;;;;5024576;28;20064;-37
2021/09/19 07:02:48;;;;;;;10.52;2.58;;;;;;;;;;5022266;28;20021;-38
2021/09/19 07:05:13;;;;;;;20.63;4.57;;;;;;;;;;5021628;28;20457;-38
2021/09/19 07:07:39;;;;;;;11.63;3.80;;;;;;;;;;5022464;28;20094;-38
2021/09/19 07:10:04;;;;;;;4.00;2.55;;;;;;;;;;5024991;28;20697;-37
2021/09/19 07:12:29;;;;;;;3.05;2.13;;;;;;;;;;5023757;28;20053;-38
2021/09/19 07:14:55;;;;;;;9.32;2.85;;;;;;;;;;5029150;28;20014;-37
2021/09/19 07:17:20;;;;;;;7.07;3.67;;;;;;;;;;5027011;28;20014;-38
2021/09/19 07:19:45;;;;;;;4.28;2.05;;;;;;;;;;5017130;28;20113;-37
2021/09/19 07:22:11;;;;;;;7.03;3.28;;;;;;;;;;5026695;28;20014;-37
2021/09/19 07:24:36;;;;;;;6.97;2.67;;;;;;;;;;5025164;28;20021;-37
2021/09/19 07:27:03;;;;;;;5.20;1.67;;;;;;;;;;5025078;28;20565;-37
2021/09/19 07:29:29;;;;;;;13.20;4.90;;;;;;;;;;5023349;28;20025;-37
2021/09/19 07:31:54;;;;;;;9.00;2.50;;;;;;;;;;5014360;28;20028;-38
2021/09/19 07:34:20;;;;;;;4.13;2.35;;;;;;;;;;5020075;28;20109;-37
2021/09/19 07:36:46;;;;;;;10.05;2.33;;;;;;;;;;5020184;28;20018;-37
2021/09/19 07:39:11;;;;;;;17.33;3.88;;;;;;;;;;5020286;28;20029;-37
2021/09/19 07:41:37;;;;;;;5.70;2.35;;;;;;;;;;5022163;28;20026;-37
2021/09/19 07:44:02;;;;;;;8.68;1.52;;;;;;;;;;5020268;28;20026;-37
2021/09/19 07:46:28;;;;;;;7.90;2.13;;;;;;;;;;5020156;28;20025;-37
2021/09/19 07:48:53;;;;;;;3.22;1.45;;;;;;;;;;5018704;28;20025;-37
2021/09/19 07:51:19;;;;;;;5.32;2.33;;;;;;;;;;5018986;28;20055;-37
2021/09/19 07:53:45;;;;;;;9.07;2.42;;;;;;;;;;5018757;28;20393;-37
2021/09/19 07:56:11;;;;;;;5.80;2.92;;;;;;;;;;5020119;28;20023;-38
2021/09/19 07:58:36;;;;;;;5.88;2.78;;;;;;;;;;5025405;28;20028;-37
2021/09/19 08:01:01;;;;;;;6.10;2.10;;;;;;;;;;5022776;28;20522;-37
2021/09/19 08:03:27;;;;;;;15.77;2.47;;;;;;;;;;5026540;28;20057;-37
2021/09/19 08:05:52;;;;;;;5.85;2.40;;;;;;;;;;5021197;28;20589;-37
2021/09/19 08:08:18;;;;;;;5.82;3.63;;;;;;;;;;5021234;28;20120;-38
2021/09/19 08:10:43;;;;;;;10.57;2.20;;;;;;;;;;5019134;28;20036;-37
2021/09/19 08:13:08;;;;;;;6.15;2.72;;;;;;;;;;5016662;28;20033;-38
2021/09/19 08:15:34;;;;;;;15.27;3.50;;;;;;;;;;5018033;28;20492;-38
2021/09/19 08:17:59;;;;;;;6.30;2.63;;;;;;;;;;5017992;28;20350;-38
2021/09/19 08:20:24;;;;;;;11.70;2.20;;;;;;;;;;5015979;28;20014;-38
2021/09/19 08:22:50;;;;;;;12.05;2.28;;;;;;;;;;5020656;28;20017;-37
2021/09/19 08:25:15;;;;;;;7.95;2.38;;;;;;;;;;5020265;28;20025;-37
2021/09/19 08:27:41;;;;;;;4.70;1.63;;;;;;;;;;5019092;28;20025;-38
2021/09/19 08:30:07;;;;;;;18.70;3.22;;;;;;;;;;5018417;28;20469;-37
2021/09/19 08:32:33;;;;;;;8.35;1.90;;;;;;;;;;5017295;28;20025;-37
2021/09/19 08:34:58;;;;;;;9.73;4.32;;;;;;;;;;5016263;28;20107;-39
2021/09/19 08:37:23;;;;;;;4.05;2.20;;;;;;;;;;5019326;28;20913;-38
2021/09/19 08:39:48;;;;;;;4.38;1.67;;;;;;;;;;5020154;28;20022;-37
2021/09/19 08:42:14;;;;;;;3.22;1.13;;;;;;;;;;5020027;28;20025;-38
2021/09/19 08:44:39;;;;;;;7.15;1.90;;;;;;;;;;5020142;28;20069;-38
2021/09/19 08:47:04;;;;;;;2.95;1.45;;;;;;;;;;5017281;28;20622;-37
2021/09/19 08:49:31;;;;;;;3.10;1.75;;;;;;;;;;5016465;28;20017;-38
2021/09/19 08:51:57;;;;;;;4.97;3.00;;;;;;;;;;5021520;28;20013;-38
2021/09/19 08:54:22;;;;;;;17.08;2.53;;;;;;;;;;5020887;28;20200;-38
2021/09/19 08:56:47;;;;;;;3.72;1.00;;;;;;;;;;5022566;28;20034;-38
2021/09/19 08:59:13;;;;;;;2.13;1.45;;;;;;;;;;5014623;28;20049;-38
2021/09/19 09:01:56;;;;;;;4.22;2.13;;;;;;;;;;5021692;28;20025;-37
2021/09/19 09:04:22;;;;;;;8.20;1.63;;;;;;;;;;5019414;28;20018;-38
2021/09/19 09:06:47;;;;;;;1.92;0.93;;;;;;;;;;5020873;28;20111;-38
2021/09/19 09:09:14;;;;;;;7.22;1.42;;;;;;;;;;5016470;28;20028;-38
2021/09/19 09:11:39;;;;;;;5.28;1.02;;;;;;;;;;5016641;28;20033;-38
2021/09/19 09:14:05;;;;;;;2.78;1.40;;;;;;;;;;5018688;28;20037;-38
2021/09/19 09:16:30;;;;;;;3.13;1.23;;;;;;;;;;5013406;28;20477;-38
2021/09/19 09:18:56;;;;;;;13.95;1.80;;;;;;;;;;5012572;28;20071;-38
2021/09/19 09:21:26;;;;;;;3.80;1.45;;;;;;;;;;5019463;28;20133;-38
2021/09/19 09:23:59;;;;;;;4.73;2.03;;;;;;;;;;5013356;28;20037;-37
2021/09/19 09:26:32;;;;;;;9.88;2.45;;;;;;;;;;5015474;28;20079;-38
2021/09/19 09:29:02;;;;;;;6.82;2.47;;;;;;;;;;5017473;28;20500;-38
2021/09/19 09:31:33;;;;;;;6.68;1.27;;;;;;;;;;5017010;28;20032;-37
2021/09/19 09:34:03;;;;;;;2.33;1.52;;;;;;;;;;5021414;28;20038;-38
2021/09/19 09:36:29;;;;;;;14.05;2.45;;;;;;;;;;5014277;28;20031;-37
2021/09/19 09:38:54;;;;;;;10.02;2.08;;;;;;;;;;5017252;28;20029;-37
2021/09/19 09:41:20;;;;;;;3.00;1.13;;;;;;;;;;5017091;28;20036;-38
2021/09/19 09:43:45;;;;;;;3.10;1.50;;;;;;;;;;5011834;28;20683;-38
2021/09/19 09:46:11;;;;;;;2.10;1.52;;;;;;;;;;5017345;28;20112;-37
2021/09/19 09:48:39;;;;;;;2.10;0.77;;;;;;;;;;5018336;28;20029;-38
2021/09/19 09:51:17;;;;;;;5.13;1.60;;;;;;;;;;5011759;28;20029;-38
2021/09/19 09:53:43;;;;;;;4.32;1.92;;;;;;;;;;5021101;28;20034;-38
2021/09/19 09:56:09;;;;;;;7.05;1.77;;;;;;;;;;5016145;28;20025;-38
2021/09/19 09:58:34;;;;;;;2.58;1.58;;;;;;;;;;5012497;28;20068;-37
2021/09/19 10:01:00;;;;;;;3.45;1.65;;;;;;;;;;5016162;28;20018;-37
2021/09/19 10:03:25;;;;;;;2.33;1.35;;;;;;;;;;5018938;28;20473;-38
2021/09/19 10:05:51;;;;;;;3.95;1.77;;;;;;;;;;5018244;28;20115;-37
2021/09/19 10:08:16;;;;;;;3.38;1.42;;;;;;;;;;5018148;28;20459;-38
2021/09/19 10:10:44;;;;;;;13.63;2.13;;;;;;;;;;5021495;28;20023;-38
2021/09/19 10:13:11;;;;;;;6.80;3.17;;;;;;;;;;5012699;28;20037;-38
2021/09/19 10:15:37;;;;;;;15.48;2.03;;;;;;;;;;5013768;28;20018;-37
2021/09/19 10:18:03;;;;;;;6.20;2.88;;;;;;;;;;5014182;28;20021;-38
2021/09/19 10:20:28;;;;;;;6.35;1.60;;;;;;;;;;5014144;28;20030;-38
2021/09/19 10:23:03;;;;;;;5.32;1.92;;;;;;;;;;5011407;28;20440;-38
2021/09/19 10:25:35;;;;;;;5.72;1.60;;;;;;;;;;5015335;28;20095;-38
2021/09/19 10:28:19;;;;;;;4.90;2.08;;;;;;;;;;5017206;28;20523;-37
2021/09/19 10:31:07;;;;;;;6.07;2.10;;;;;;;;;;5017501;28;20086;-37
2021/09/19 10:33:33;;;;;;;2.35;1.45;;;;;;;;;;5009984;28;20030;-38
2021/09/19 10:36:01;;;;;;;7.82;1.83;;;;;;;;;;5019271;28;20026;-38
2021/09/19 10:38:34;;;;;;;9.38;2.63;;;;;;;;;;5017648;28;20045;-37
2021/09/19 10:41:12;;;;;;;5.72;2.55;;;;;;;;;;5016561;28;20112;-38
2021/09/19 10:43:47;;;;;;;8.38;2.00;;;;;;;;;;5016443;28;20018;-37
2021/09/19 10:46:33;;;;;;;5.32;1.67;;;;;;;;;;5016922;28;20544;-38
2021/09/19 10:49:17;;;;;;;15.77;2.10;;;;;;;;;;5016473;28;20025;-38
2021/09/19 10:52:01;;;;;;;4.07;1.15;;;;;;;;;;5015756;28;20493;-37
2021/09/19 10:54:42;;;;;;;4.40;2.15;;;;;;;;;;5016202;28;20028;-38
2021/09/19 10:57:18;;;;;;;4.63;2.28;;;;;;;;;;5017969;28;20124;-38
2021/09/19 11:00:01;;;;;;;13.95;1.75;;;;;;;;;;5018829;28;20528;-38
2021/09/19 11:02:30;;;;;;;2.53;1.20;;;;;;;;;;5015049;28;20458;-38
2021/09/19 11:05:20;;;;;;;6.70;2.33;;;;;;;;;;5014296;28;20023;-38
2021/09/19 11:07:45;;;;;;;2.22;0.73;;;;;;;;;;5022458;28;20021;-38
2021/09/19 11:10:13;;;;;;;11.18;1.92;;;;;;;;;;5020680;28;20075;-37
2021/09/19 11:12:46;;;;;;;11.18;1.88;;;;;;;;;;5019994;28;20125;-37
2021/09/19 11:15:14;;;;;;;6.03;2.05;;;;;;;;;;5013921;28;20544;-38
2021/09/19 11:17:46;;;;;;;13.82;2.25;;;;;;;;;;5014428;28;20737;-37
2021/09/19 11:20:15;;;;;;;8.27;1.98;;;;;;;;;;5018218;28;20469;-38
2021/09/19 11:22:41;;;;;;;3.97;1.70;;;;;;;;;;5020358;28;20030;-37
2021/09/19 11:25:07;;;;;;;4.13;1.10;;;;;;;;;;5013446;28;20022;-38
2021/09/19 11:27:33;;;;;;;6.70;1.73;;;;;;;;;;5017650;28;20030;-38
2021/09/19 11:29:58;;;;;;;9.32;2.17;;;;;;;;;;5010732;28;20026;-38
2021/09/19 11:32:24;;;;;;;2.15;1.17;;;;;;;;;;5008714;28;20417;-37
2021/09/19 11:34:50;;;;;;;17.55;2.38;;;;;;;;;;5001911;28;20480;-38
2021/09/19 11:37:15;;;;;;;7.53;2.20;;;;;;;;;;5015517;28;20021;-38
2021/09/19 11:39:40;;;;;;;6.78;2.30;;;;;;;;;;5016742;28;20026;-37
2021/09/19 11:42:07;;;;;;;7.97;1.98;;;;;;;;;;5016307;28;20033;-38
2021/09/19 11:44:34;;;;;;;8.88;1.77;;;;;;;;;;5023087;28;20025;-38
2021/09/19 11:47:01;;;;;;;8.02;1.50;;;;;;;;;;5020591;28;20033;-38
2021/09/19 11:49:26;;;;;;;7.97;1.83;;;;;;;;;;5018444;28;20083;-38
2021/09/19 11:51:52;;;;;;;5.35;1.35;;;;;;;;;;5023898;28;20026;-37
2021/09/19 11:54:17;;;;;;;8.65;2.35;;;;;;;;;;5018745;28;20030;-37
2021/09/19 11:56:43;;;;;;;3.97;1.85;;;;;;;;;;5014415;28;20022;-37
2021/09/19 11:59:13;;;;;;;13.05;2.05;;;;;;;;;;5014472;28;20026;-38
2021/09/19 12:01:38;;;;;;;9.38;1.90;;;;;;;;;;5021693;28;20109;-37
2021/09/19 12:04:04;;;;;;;6.80;2.35;;;;;;;;;;5019880;28;20014;-37
2021/09/19 12:06:30;;;;;;;10.35;1.85;;;;;;;;;;5019006;28;20624;-38
2021/09/19 12:08:56;;;;;;;4.00;1.33;;;;;;;;;;5019844;28;20046;-37
2021/09/19 12:11:36;;;;;;;6.88;2.60;;;;;;;;;;5016053;28;20057;-37
2021/09/19 12:14:01;;;;;;;3.80;1.43;;;;;;;;;;5024956;28;20037;-37
2021/09/19 12:16:29;;;;;;;6.13;1.70;;;;;;;;;;5018300;28;20090;-38
2021/09/19 12:18:54;;;;;;;8.40;1.27;;;;;;;;;;5016183;28;20017;-37
2021/09/19 12:21:24;;;;;;;5.80;2.60;;;;;;;;;;5016007;28;20025;-37
2021/09/19 12:23:57;;;;;;;8.43;2.33;;;;;;;;;;5015374;28;20049;-37
2021/09/19 12:26:27;;;;;;;8.68;1.58;;;;;;;;;;5017077;28;20026;-37
2021/09/19 12:28:53;;;;;;;4.07;1.60;;;;;;;;;;5019401;28;20021;-37
2021/09/19 12:31:37;;;;;;;4.90;2.38;;;;;;;;;;5016881;28;20488;-37
2021/09/19 12:34:03;;;;;;;5.20;2.22;;;;;;;;;;5022181;28;20233;-37
2021/09/19 12:36:29;;;;;;;4.45;1.65;;;;;;;;;;5018653;28;20544;-38
2021/09/19 12:38:55;;;;;;;8.95;2.28;;;;;;;;;;5018692;28;20028;-38
2021/09/19 12:41:20;;;;;;;6.68;1.77;;;;;;;;;;5021128;28;20042;-37
2021/09/19 12:43:46;;;;;;;3.97;2.33;;;;;;;;;;5018318;28;20388;-37
2021/09/19 12:46:13;;;;;;;18.90;2.53;;;;;;;;;;5018203;28;20032;-37
2021/09/19 12:48:38;;;;;;;4.13;1.23;;;;;;;;;;5015170;28;20029;-38
2021/09/19 12:51:04;;;;;;;3.95;2.20;;;;;;;;;;5019578;28;20051;-37
2021/09/19 12:53:31;;;;;;;6.53;1.98;;;;;;;;;;5019198;28;20373;-37
2021/09/19 12:55:59;;;;;;;3.40;1.55;;;;;;;;;;5017278;28;20017;-37
2021/09/19 12:58:24;;;;;;;4.97;1.88;;;;;;;;;;5019374;28;20096;-37
2021/09/19 13:00:50;;;;;;;6.43;2.25;;;;;;;;;;5019965;28;20484;-37
2021/09/19 13:03:18;;;;;;;5.68;1.23;;;;;;;;;;5019816;28;20023;-37
2021/09/19 13:05:43;;;;;;;3.45;1.80;;;;;;;;;;5015893;28;20518;-37
2021/09/19 13:08:08;;;;;;;1.55;1.08;;;;;;;;;;5018216;28;20040;-37
2021/09/19 13:10:34;;;;;;;9.35;2.75;;;;;;;;;;5017857;28;20071;-37
2021/09/19 13:12:59;;;;;;;7.30;1.40;;;;;;;;;;5017561;28;20025;-37
2021/09/19 13:15:25;;;;;;;5.22;2.67;;;;;;;;;;5019010;28;20540;-37
2021/09/19 13:17:51;;;;;;;6.65;2.08;;;;;;;;;;5016575;28;20032;-37
2021/09/19 13:20:17;;;;;;;7.07;1.50;;;;;;;;;;5018857;28;20022;-37
2021/09/19 13:22:42;;;;;;;10.77;2.40;;;;;;;;;;5020613;28;20025;-37
2021/09/19 13:25:07;;;;;;;2.78;1.13;;;;;;;;;;5019962;28;20500;-37
2021/09/19 13:27:33;;;;;;;10.85;1.30;;;;;;;;;;5019331;28;20457;-38
2021/09/19 13:29:59;;;;;;;12.65;2.38;;;;;;;;;;5018179;28;20921;-37
2021/09/19 13:32:24;;;;;;;16.45;1.42;;;;;;;;;;5016800;28;20033;-37
2021/09/19 13:34:49;;;;;;;8.80;2.20;;;;;;;;;;5013301;28;20017;-37
2021/09/19 13:37:16;;;;;;;4.65;2.15;;;;;;;;;;5011336;28;20020;-37
2021/09/19 13:39:41;;;;;;;8.20;2.88;;;;;;;;;;5007732;28;20556;-37
2021/09/19 13:42:07;;;;;;;3.03;0.88;;;;;;;;;;5019560;28;20022;-37
2021/09/19 13:44:32;;;;;;;12.27;2.20;;;;;;;;;;5019990;28;20451;-37
2021/09/19 13:46:59;;;;;;;5.00;1.42;;;;;;;;;;5021120;28;20559;-37
2021/09/19 13:49:24;;;;;;;3.22;1.67;;;;;;;;;;5010990;28;20544;-37
2021/09/19 13:51:50;;;;;;;3.80;1.23;;;;;;;;;;5015776;28;20069;-37
2021/09/19 13:54:15;;;;;;;10.45;2.08;;;;;;;;;;5014527;28;20030;-37
2021/09/19 13:56:44;;;;;;;9.05;1.10;;;;;;;;;;5010538;28;20762;-37
2021/09/19 13:59:09;;;;;;;6.93;2.40;;;;;;;;;;5005611;28;20687;-37
2021/09/19 14:01:34;;;;;;;4.68;2.20;;;;;;;;;;5003981;28;20030;-37
2021/09/19 14:03:59;;;;;;;15.40;2.40;;;;;;;;;;5017427;28;20100;-37
2021/09/19 14:06:25;;;;;;;8.77;2.15;;;;;;;;;;5015915;28;20509;-37
2021/09/19 14:08:50;;;;;;;8.88;2.55;;;;;;;;;;5014346;28;20639;-37
2021/09/19 14:11:16;;;;;;;4.88;1.45;;;;;;;;;;5019935;28;20597;-37
2021/09/19 14:13:41;;;;;;;10.10;2.10;;;;;;;;;;5021060;28;20034;-37
2021/09/19 14:16:07;;;;;;;4.32;1.10;;;;;;;;;;5016817;28;20036;-37
2021/09/19 14:18:33;;;;;;;16.02;1.35;;;;;;;;;;5019025;28;20021;-37
2021/09/19 14:20:59;;;;;;;6.03;1.63;;;;;;;;;;5013524;28;20053;-37
2021/09/19 14:23:24;;;;;;;3.67;1.15;;;;;;;;;;5013125;28;20072;-37
2021/09/19 14:25:49;;;;;;;5.45;1.90;;;;;;;;;;5021523;28;20022;-37
2021/09/19 14:28:14;;;;;;;6.95;1.95;;;;;;;;;;5016125;28;20152;-37
2021/09/19 14:30:40;;;;;;;5.15;2.20;;;;;;;;;;5017643;28;20026;-37
2021/09/19 14:33:05;;;;;;;7.95;2.05;;;;;;;;;;5016690;28;20018;-37